Terminal Aerodrome Forecast
Issued by NWS Tulsa, OK

Home | Current Version | Previous Version | Text Only | Print | Product List | Glossary On
Versions: 1 2 3 4 5 6 7 8 9 10 11 12 13 14 15
000
FTUS44 KTSA 292324
TAFTUL
TAF
KTUL 292324Z 3000/3024 07008KT P6SM VCTS BKN025CB
      TEMPO 3000/3003 5SM -TSRA SCT008 BKN012CB
     FM300300 02007KT P6SM OVC015
     FM300900 28007KT P6SM OVC015
     FM301700 29009KT P6SM SCT025 SCT250=

USA.gov is the U.S. government's official web portal to all federal, state and local government web resources and services.